Time;durP1;ratioP1;P1;durP2;ratioP2;P2;SDS_P1;SDS_P2;PMS_P1;PMS_P2;Temp;Humidity;BMP_temperature;BMP_pressure;BME280_temperature;BME280_humidity;BME280_pressure;Samples;Min_cycle;Max_cycle;Signal;HPM_P1;HPM_P2
2022/12/15 00:40:18;;;;;;;;;;;;;;;;;;;;;
2022/12/15 00:43:13;;;;;;;;;10.25;10.00;;;;;15.57;74.41;100278.09;146618;576;46016;-75
2022/12/15 01:22:13;;;;;;;;;9.75;9.00;;;;;15.45;75.59;100205.50;146620;718;46012;-77
2022/12/15 01:25:21;;;;;;;;;11.50;8.50;;;;;15.73;76.10;100238.41;146623;589;46010;-75
2022/12/15 01:28:18;;;;;;;;;11.25;6.00;;;;;15.75;75.58;100243.69;146621;679;46012;-79
2022/12/15 01:31:35;;;;;;;;;9.50;8.75;;;;;13.23;74.86;99790.59;146622;592;46010;-77
2022/12/15 01:34:47;;;;;;;;;8.00;7.50;;;;;15.81;75.89;100230.78;146619;682;46016;-76
2022/12/15 01:38:02;;;;;;;;;9.75;9.50;;;;;13.22;75.62;99781.03;146624;572;46012;-77
2022/12/15 01:41:14;;;;;;;;;7.00;7.00;;;;;15.89;76.06;100227.47;146617;730;46016;-77
2022/12/15 01:44:27;;;;;;;;;11.25;8.50;;;;;15.92;75.94;100237.13;146620;616;46020;-79
2022/12/15 01:47:31;;;;;;;;;7.75;5.75;;;;;15.94;75.66;100217.09;146619;678;46014;-79
2022/12/15 01:50:25;;;;;;;;;9.25;9.00;;;;;15.98;76.61;100229.41;146622;576;46021;-80
2022/12/15 01:53:30;;;;;;;;;8.00;6.00;;;;;16.03;76.41;100235.59;146619;563;46016;-78
2022/12/15 01:56:45;;;;;;;;;7.25;7.00;;;;;16.08;76.00;100225.25;146621;575;46010;-78
2022/12/15 01:59:49;;;;;;;;;8.75;7.75;;;;;16.11;75.52;100226.19;146616;597;46012;-78
2022/12/15 02:02:45;;;;;;;;;8.00;8.00;;;;;16.13;76.21;100211.41;146622;642;46020;-76
2022/12/15 02:05:53;;;;;;;;;9.00;6.50;;;;;16.15;76.14;100214.06;146617;689;46017;-77
2022/12/15 02:08:53;;;;;;;;;9.50;5.75;;;;;16.16;75.98;100208.84;146621;572;46010;-76
2022/12/15 02:12:37;;;;;;;;;8.67;7.00;;;;;14.77;75.93;99968.13;146621;611;46016;-76
2022/12/15 02:16:12;;;;;;;;;5.25;4.75;;;;;13.61;75.21;99775.94;146623;570;46020;-78
2022/12/15 02:19:48;;;;;;;;;8.75;7.00;;;;;14.68;75.56;99950.53;146621;611;46016;-77
2022/12/15 02:23:31;;;;;;;;;8.25;5.00;;;;;13.72;76.28;99769.28;146622;582;46010;-75
2022/12/15 02:27:07;;;;;;;;;6.67;6.00;;;;;14.78;75.94;99926.38;146619;685;46016;-76
2022/12/15 02:31:48;;;;;;;;;9.33;7.67;;;;;14.08;75.74;99821.38;146625;584;46010;-78
2022/12/15 02:34:26;;;;;;;;;7.00;7.00;;;;;16.38;76.09;100194.44;146617;625;46013;-77
2022/12/15 02:37:41;;;;;;;;;6.75;5.75;;;;;16.39;75.85;100201.47;146623;685;46010;-76
2022/12/15 02:40:38;;;;;;;;;10.50;9.00;;;;;16.38;76.67;100178.75;146618;569;46016;-79
2022/12/15 02:43:37;;;;;;;;;4.67;4.67;;;;;16.41;76.17;100198.88;146624;660;46010;-77
2022/12/15 02:47:19;;;;;;;;;5.67;5.67;;;;;16.44;74.81;100206.78;146621;628;46014;-77
2022/12/15 02:51:16;;;;;;;;;6.50;5.50;;;;;13.84;75.56;99755.66;146635;593;46010;-78
2022/12/15 02:54:49;;;;;;;;;;;;;;;;;;;;;
2022/12/15 02:58:26;;;;;;;;;6.33;5.33;;;;;16.49;76.18;100209.50;146639;598;45021;-75
2022/12/15 03:01:56;;;;;;;;;6.75;6.25;;;;;13.92;76.16;99735.84;146630;609;45918;-76
2022/12/15 03:04:59;;;;;;;;;6.00;4.00;;;;;16.54;76.28;100208.75;146639;614;45020;-79
2022/12/15 03:08:08;;;;;;;;;8.00;6.00;;;;;14.02;75.22;99771.69;146637;692;45016;-77
2022/12/15 03:11:15;;;;;;;;;6.25;5.00;;;;;16.58;75.65;100188.75;146634;608;45010;-78
2022/12/15 03:14:10;;;;;;;;;8.00;6.67;;;;;16.58;76.40;100199.22;146636;579;45012;-77
2022/12/15 03:17:06;;;;;;;;;6.67;6.33;;;;;16.58;76.15;100184.38;146639;581;45010;-76
2022/12/15 03:19:58;;;;;;;;;5.67;5.00;;;;;16.58;75.38;100199.22;146636;565;45016;-75
2022/12/15 03:22:50;;;;;;;;;5.67;4.67;;;;;16.56;75.49;100206.13;146637;569;45010;-75
2022/12/15 03:25:58;;;;;;;;;7.00;5.00;;;;;16.56;76.69;100206.13;146637;586;45012;-74
2022/12/15 03:29:07;;;;;;;;;5.33;5.33;;;;;16.60;75.58;100221.03;146636;626;45010;-75
2022/12/15 03:32:04;;;;;;;;;5.67;5.67;;;;;16.62;76.07;100190.53;146637;591;45012;-75
2022/12/15 03:34:59;;;;;;;;;6.00;5.33;;;;;16.63;76.42;100184.44;146638;606;46012;-74
2022/12/15 03:37:59;;;;;;;;;5.00;4.00;;;;;16.67;76.13;100195.88;146630;624;47014;-77
2022/12/15 03:41:20;;;;;;;;;;;;;;;;;;;;;
2022/12/15 03:44:19;;;;;;;;;7.00;5.00;;;;;16.75;75.02;100209.97;146645;688;45014;-77
2022/12/15 03:47:26;;;;;;;;;7.25;4.25;;;;;16.76;75.53;100209.13;146643;569;46583;-76
2022/12/15 03:50:23;;;;;;;;;9.67;6.00;;;;;16.77;75.29;100217.03;146632;604;46014;-74
2022/12/15 03:53:19;;;;;;;;;7.33;7.00;;;;;16.79;75.45;100209.19;146634;605;46020;-75
2022/12/15 03:56:16;;;;;;;;;7.75;4.25;;;;;16.81;75.06;100212.72;146632;648;46012;-75
2022/12/15 03:59:11;;;;;;;;;8.00;8.00;;;;;16.81;74.72;100225.81;146633;617;46010;-75
2022/12/15 04:02:11;;;;;;;;;7.33;6.00;;;;;16.82;75.28;100218.00;146632;564;46012;-75
2022/12/15 04:05:30;;;;;;;;;5.25;5.00;;;;;16.83;74.79;100203.19;146633;692;46012;-76
2022/12/15 04:08:35;;;;;;;;;;;;;;;;;;;;;
2022/12/15 04:11:32;;;;;;;;;5.33;5.00;;;;;16.84;74.99;100236.34;146632;577;46021;-76
2022/12/15 04:14:34;;;;;;;;;7.00;5.00;;;;;16.85;74.81;100217.16;146626;577;46016;-78
2022/12/15 04:17:33;;;;;;;;;8.00;6.67;;;;;16.89;75.14;100211.16;146635;609;46010;-78
2022/12/15 04:20:37;;;;;;;;;5.00;3.00;;;;;16.92;74.37;100233.87;146633;611;46014;-77
2022/12/15 05:33:24;;;;;;;;;;;;;;;;;;;;;
2022/12/15 05:36:29;;;;;;;;;6.00;5.00;;;;;17.31;72.03;100302.66;146633;583;46012;-77
2022/12/15 05:39:23;;;;;;;;;8.67;5.00;;;;;17.34;71.98;100307.09;146634;656;46012;-72
2022/12/15 05:42:29;;;;;;;;;6.00;5.00;;;;;17.36;72.58;100304.50;146630;576;46012;-70
2022/12/15 05:45:22;;;;;;;;;5.00;4.00;;;;;17.37;72.10;100309.75;146630;760;46014;-71
2022/12/15 05:48:29;;;;;;;;;7.00;7.00;;;;;17.37;71.88;100309.75;146633;578;45021;-82
2022/12/15 05:51:27;;;;;;;;;4.67;4.67;;;;;17.36;71.87;100331.59;146629;620;46014;-82
2022/12/15 05:54:25;;;;;;;;;7.67;4.67;;;;;17.34;71.64;100335.03;146633;601;46010;-78
2022/12/15 05:57:23;;;;;;;;;5.00;3.00;;;;;17.34;72.08;100338.53;146632;622;46017;-79
2022/12/15 06:00:30;;;;;;;;;7.00;7.00;;;;;17.36;72.93;100347.31;146635;661;45020;-78
2022/12/15 06:03:22;;;;;;;;;8.00;7.00;;;;;17.33;73.61;100346.38;146631;581;46017;-76
2022/12/15 06:06:21;;;;;;;;;10.00;7.00;;;;;17.28;73.75;100352.41;146634;576;46020;-76
2022/12/15 06:09:19;;;;;;;;;13.75;13.75;;;;;17.24;73.96;100362.81;146619;573;47918;-76
2022/12/15 06:12:30;;;;;;;;;;;;;;;;;;;;;
2022/12/15 06:15:28;;;;;;;;;19.00;16.25;;;;;17.11;74.63;100366.06;146625;611;46016;-76
2022/12/15 06:18:22;;;;;;;;;20.50;18.00;;;;;17.04;74.96;100365.03;146622;592;46020;-76
2022/12/15 06:21:50;;;;;;;;;22.75;17.00;;;;;14.40;74.64;99919.41;146620;574;46016;-79
2022/12/15 06:24:44;;;;;;;;;14.25;12.50;;;;;16.60;76.33;100320.50;146622;719;46020;-79
2022/12/15 06:27:41;;;;;;;;;15.75;14.00;;;;;16.83;76.35;100381.22;146621;574;46016;-80
2022/12/15 06:30:37;;;;;;;;;17.75;16.25;;;;;16.80;76.96;100374.19;146623;572;46012;-79
2022/12/15 06:33:51;;;;;;;;;22.50;15.75;;;;;16.83;77.42;100389.09;146624;612;46017;-79
2022/12/15 06:36:52;;;;;;;;;17.75;15.00;;;;;16.90;81.06;100390.09;146709;567;46013;-76
2022/12/15 06:39:48;;;;;;;;;15.25;12.00;;;;;17.05;78.74;100387.78;146617;716;46024;-77
2022/12/15 06:42:57;;;;;;;;;14.00;11.75;;;;;17.34;79.65;100385.69;146621;692;46010;-76
2022/12/15 06:45:53;;;;;;;;;11.00;11.00;;;;;17.91;80.06;100399.81;146619;595;46012;-76
2022/12/15 06:48:51;;;;;;;;;35.50;29.00;;;;;18.58;76.86;100398.19;146618;574;46031;-76
2022/12/15 06:51:52;;;;;;;;;23.50;21.75;;;;;19.20;72.33;100386.72;146619;564;47012;-74
2022/12/15 06:54:54;;;;;;;;;21.75;19.75;;;;;19.51;71.60;100397.56;146622;627;46020;-73
2022/12/15 06:57:51;;;;;;;;;19.75;16.75;;;;;19.86;69.02;100415.44;146617;592;46016;-75
2022/12/15 07:00:48;;;;;;;;;24.75;21.00;;;;;19.99;67.00;100412.91;146620;639;46021;-80
2022/12/15 07:04:05;;;;;;;;;42.75;35.25;;;;;19.92;67.01;100428.66;146617;636;46014;-75
2022/12/15 07:07:13;;;;;;;;;33.25;29.75;;;;;19.97;71.27;100438.34;146620;608;46021;-75
2022/12/15 07:10:20;;;;;;;;;34.50;29.75;;;;;20.61;67.32;100442.34;146618;626;46014;-75
2022/12/15 07:13:29;;;;;;;;;31.00;26.00;;;;;21.07;66.44;100438.16;146623;590;46010;-74
2022/12/15 07:16:23;;;;;;;;;34.25;30.25;;;;;21.42;63.30;100454.13;146614;603;46016;-75
2022/12/15 07:19:32;;;;;;;;;41.50;34.75;;;;;21.12;63.29;100436.44;146616;600;46010;-75
2022/12/15 07:22:27;;;;;;;;;33.25;28.75;;;;;20.83;62.98;100461.78;146618;636;47012;-75
2022/12/15 07:25:25;;;;;;;;;26.50;23.25;;;;;20.43;63.66;100456.22;146619;659;46020;-75
2022/12/15 07:28:24;;;;;;;;;28.25;24.50;;;;;20.10;64.18;100449.84;146618;629;46918;-75
2022/12/15 07:31:16;;;;;;;;;26.25;23.75;;;;;19.83;65.54;100463.66;146625;617;45020;-75
2022/12/15 07:34:27;;;;;;;;;27.00;25.00;;;;;19.55;66.33;100475.59;146618;583;46016;-76
2022/12/15 07:37:26;;;;;;;;;27.25;25.00;;;;;19.33;67.34;100477.13;146621;565;46021;-75
2022/12/15 07:40:24;;;;;;;;;28.50;27.75;;;;;19.17;67.83;100478.69;146619;644;46012;-75
2022/12/15 07:43:22;;;;;;;;;26.75;26.25;;;;;19.08;69.38;100489.97;146620;586;46020;-77
2022/12/15 07:46:28;;;;;;;;;27.00;24.00;;;;;19.05;68.94;100495.19;146618;586;46918;-75
2022/12/15 07:49:21;;;;;;;;;29.50;27.50;;;;;19.20;68.43;100510.25;146621;629;46021;-74
2022/12/15 07:52:17;;;;;;;;;27.25;23.00;;;;;19.29;67.99;100502.50;146618;569;46919;-75
2022/12/15 07:55:14;;;;;;;;;26.25;23.25;;;;;19.39;67.36;100512.25;146620;572;46010;-76
2022/12/15 07:58:11;;;;;;;;;26.25;24.25;;;;;19.44;66.81;100514.94;146618;573;46016;-76
2022/12/15 08:01:07;;;;;;;;;27.75;25.75;;;;;19.50;65.89;100516.75;146621;604;46010;-77
2022/12/15 08:04:13;;;;;;;;;26.00;24.00;;;;;19.47;66.32;100533.41;146622;596;46012;-76
2022/12/15 08:07:07;;;;;;;;;25.75;21.75;;;;;19.48;65.99;100547.41;146622;589;47032;-76
2022/12/15 08:10:03;;;;;;;;;21.75;19.50;;;;;19.44;65.77;100541.25;146617;563;46016;-77
2022/12/15 08:12:56;;;;;;;;;23.50;20.00;;;;;19.43;65.43;100549.09;146624;576;45021;-75
2022/12/15 08:15:58;;;;;;;;;28.50;20.50;;;;;19.39;66.23;100554.31;146622;631;45016;-76
2022/12/15 08:19:16;;;;;;;;;;;;;;;;;;;;;
2022/12/15 08:22:14;;;;;;;;;22.50;20.75;;;;;19.29;66.27;100564.72;146620;595;45018;-75
2022/12/15 08:25:20;;;;;;;;;21.25;18.25;;;;;19.25;66.49;100568.13;146619;646;46020;-76
2022/12/15 08:28:18;;;;;;;;;20.75;19.00;;;;;19.22;66.51;100578.59;146619;572;46017;-74
2022/12/15 08:31:14;;;;;;;;;25.25;22.25;;;;;19.17;67.30;100588.19;146620;617;46020;-77
2022/12/15 08:34:07;;;;;;;;;31.75;25.75;;;;;19.06;67.32;100585.41;146618;611;46017;-76
2022/12/15 08:37:00;;;;;;;;;26.00;22.75;;;;;18.92;67.74;100593.09;146613;611;46020;-75
2022/12/15 08:39:55;;;;;;;;;33.25;28.50;;;;;18.80;67.90;100593.78;146614;604;46016;-76
2022/12/15 08:42:48;;;;;;;;;28.25;25.00;;;;;18.71;68.18;100585.72;146616;608;46021;-75
2022/12/15 08:45:43;;;;;;;;;27.25;23.00;;;;;18.65;67.74;100598.75;146617;693;46918;-77
2022/12/15 08:48:35;;;;;;;;;28.00;24.00;;;;;18.56;67.26;100596.84;146618;571;46020;-76
2022/12/15 08:51:31;;;;;;;;;28.75;26.00;;;;;18.53;68.72;100603.81;146614;588;46037;-75
2022/12/15 08:54:25;;;;;;;;;28.00;25.25;;;;;18.48;68.24;100594.97;146617;578;46020;-76
2022/12/15 08:57:18;;;;;;;;;24.50;23.75;;;;;18.45;68.31;100606.31;146613;570;46017;-77
2022/12/15 09:00:14;;;;;;;;;29.50;26.00;;;;;18.45;67.84;100612.44;146617;604;46020;-76
2022/12/15 09:03:31;;;;;;;;;;;;;;;;;;;;;
2022/12/15 09:06:53;;;;;;;;;;;;;;;;;;;;;
2022/12/15 09:09:47;;;;;;;;;24.50;21.50;;;;;19.35;66.65;100610.37;146615;611;47012;-76
2022/12/15 09:12:55;;;;;;;;;24.50;23.00;;;;;19.65;65.78;100616.03;146621;583;46011;-76
2022/12/15 09:15:47;;;;;;;;;28.75;22.00;;;;;19.97;64.79;100614.69;146615;583;47012;-76
2022/12/15 09:18:47;;;;;;;;;26.25;20.50;;;;;20.16;63.69;100599.97;146620;605;46013;-75
2022/12/15 09:21:48;;;;;;;;;27.25;23.00;;;;;20.23;63.49;100601.78;146614;609;46016;-76
2022/12/15 09:24:40;;;;;;;;;26.75;23.75;;;;;20.28;61.52;100609.75;146703;576;45022;-75
2022/12/15 09:27:42;;;;;;;;;25.75;21.50;;;;;20.27;63.57;100597.41;146616;621;46943;-76
2022/12/15 09:30:42;;;;;;;;;33.75;27.25;;;;;20.35;63.49;100601.03;146618;598;46020;-76
2022/12/15 09:33:45;;;;;;;;;29.00;27.75;;;;;20.53;63.66;100605.63;146617;602;46016;-76
2022/12/15 09:36:52;;;;;;;;;28.75;23.25;;;;;20.75;61.19;100610.19;146620;604;46010;-76
2022/12/15 09:39:45;;;;;;;;;28.25;22.00;;;;;20.83;61.01;100597.03;146614;580;46016;-76
2022/12/15 09:42:41;;;;;;;;;27.75;23.50;;;;;20.79;61.34;100597.91;146617;662;46021;-75
2022/12/15 09:46:25;;;;;;;;;;;;;;;;;;;;;
2022/12/15 09:49:54;;;;;;;;;20.75;18.25;;;;;20.61;61.50;100603.91;146620;565;46021;-76
2022/12/15 09:53:03;;;;;;;;;21.25;18.75;;;;;20.48;62.27;100604.62;146616;573;46918;-76
2022/12/15 09:56:12;;;;;;;;;23.75;19.75;;;;;20.42;62.31;100601.94;146619;603;46010;-75
2022/12/15 09:59:34;;;;;;;;;18.50;16.25;;;;;20.44;64.17;100598.47;146619;668;46012;-76
2022/12/15 10:03:27;;;;;;;;;24.00;15.75;;;;;20.60;62.10;100596.87;146621;577;46010;-76
2022/12/15 10:06:27;;;;;;;;;18.25;14.75;;;;;20.60;61.32;100596.87;146617;565;46016;-76
2022/12/15 10:09:43;;;;;;;;;17.25;16.75;;;;;20.63;62.78;100599.53;146617;650;47020;-75
2022/12/15 10:12:46;;;;;;;;;15.67;13.33;;;;;20.71;61.57;100603.09;146617;573;48013;-76
2022/12/15 10:16:20;;;;;;;;;;;;;;;;;;;;;
2022/12/15 10:19:48;;;;;;;;;15.33;14.67;;;;;20.80;60.61;100551.34;146619;658;46013;-76
2022/12/15 10:22:55;;;;;;;;;21.75;17.25;;;;;21.05;60.66;100576.97;146624;570;46010;-76
2022/12/15 10:26:19;;;;;;;;;14.00;12.75;;;;;21.17;60.51;100587.59;146619;564;46015;-75
2022/12/15 10:29:49;;;;;;;;;13.33;11.33;;;;;21.19;60.38;100587.62;146619;710;46020;-75
2022/12/15 10:33:15;;;;;;;;;17.25;14.25;;;;;21.22;60.03;100583.25;146617;570;46014;-75
2022/12/15 10:36:23;;;;;;;;;17.50;14.00;;;;;21.36;62.03;100585.97;146620;649;46021;-75
2022/12/15 10:39:16;;;;;;;;;12.75;12.00;;;;;21.56;60.06;100590.50;146618;563;46918;-74
2022/12/15 10:42:21;;;;;;;;;17.67;14.33;;;;;21.74;59.45;100592.28;146622;634;46020;-73
2022/12/15 10:45:45;;;;;;;;;17.50;14.75;;;;;21.89;59.97;100585.31;146619;587;46012;-75
2022/12/15 10:48:42;;;;;;;;;15.00;14.00;;;;;22.00;59.12;100584.47;146619;614;46020;-75
2022/12/15 10:52:10;;;;;;;;;20.00;18.00;;;;;22.01;59.28;100560.69;146613;586;47017;-76
2022/12/15 10:55:26;;;;;;;;;21.50;19.25;;;;;22.23;57.29;100581.91;146621;565;46010;-76
2022/12/15 10:58:34;;;;;;;;;25.25;21.25;;;;;22.30;59.06;100568.69;146615;604;46017;-74
2022/12/15 11:01:35;;;;;;;;;19.75;18.25;;;;;22.39;57.16;100573.09;146620;590;46020;-76
2022/12/15 11:04:50;;;;;;;;;15.50;14.75;;;;;22.38;58.07;100555.50;146617;577;46013;-76
2022/12/15 11:08:26;;;;;;;;;16.00;14.33;;;;;22.48;57.08;100565.16;146621;577;46012;-76
2022/12/15 11:15:43;;;;;;;;;18.00;15.33;;;;;22.48;58.87;100572.22;146618;594;46020;-75
2022/12/15 11:18:53;;;;;;;;;18.67;16.67;;;;;22.55;58.55;100577.53;146620;590;46012;-75
2022/12/15 11:22:11;;;;;;;;;;;;;;;;;;;;;
2022/12/15 11:25:45;;;;;;;;;16.00;15.00;;;;;22.67;59.06;100555.47;146633;600;45018;-76
2022/12/15 11:29:07;;;;;;;;;15.33;15.00;;;;;22.85;59.63;100556.34;146638;589;45020;-75
2022/12/15 11:32:04;;;;;;;;;16.25;13.75;;;;;23.09;55.19;100566.03;146636;613;45012;-75
2022/12/15 11:34:57;;;;;;;;;14.67;12.33;;;;;23.21;54.31;100571.28;146637;687;45021;-76
2022/12/15 11:38:28;;;;;;;;;17.50;15.00;;;;;23.24;56.95;100571.25;146630;586;45016;-75
2022/12/15 11:41:55;;;;;;;;;16.25;13.00;;;;;23.13;57.54;100554.56;146634;572;45021;-76
2022/12/15 11:45:26;;;;;;;;;12.33;11.33;;;;;23.11;55.42;100558.94;146633;576;45016;-75
2022/12/15 11:48:28;;;;;;;;;15.00;13.00;;;;;23.13;54.65;100579.22;146634;617;46010;-75
2022/12/15 11:52:00;;;;;;;;;14.33;13.00;;;;;23.07;56.12;100576.59;146632;564;46012;-74
2022/12/15 11:55:19;;;;;;;;;9.33;9.00;;;;;23.12;56.29;100573.97;146639;686;45020;-75
2022/12/15 11:59:14;;;;;;;;;;;;;;;;;;;;;
2022/12/15 12:03:01;;;;;;;;;16.33;14.33;;;;;23.13;57.55;100581.00;146634;578;45010;-75
2022/12/15 12:06:39;;;;;;;;;15.67;15.00;;;;;23.20;54.91;100586.25;146636;633;45016;-75
2022/12/15 12:09:54;;;;;;;;;16.33;12.00;;;;;23.16;54.76;100588.94;146638;698;46010;-75
2022/12/15 12:13:23;;;;;;;;;15.00;12.00;;;;;22.95;56.16;100569.56;146636;601;45016;-76
2022/12/15 12:16:43;;;;;;;;;16.33;13.33;;;;;23.06;57.46;100590.72;146638;679;45010;-75
2022/12/15 12:19:50;;;;;;;;;14.67;13.67;;;;;23.17;56.21;100588.03;146633;646;46012;-77
2022/12/15 12:23:31;;;;;;;;;16.67;13.67;;;;;23.31;55.07;100596.81;146634;586;46020;-76
2022/12/15 12:26:42;;;;;;;;;13.33;12.67;;;;;23.45;56.20;100594.13;146620;572;46013;-76
2022/12/15 12:29:49;;;;;;;;;18.00;18.00;;;;;23.57;55.01;100601.12;146620;636;46020;-77
2022/12/15 12:33:18;;;;;;;;;16.00;14.00;;;;;23.59;55.17;100600.25;146619;652;47012;-76
2022/12/15 12:36:21;;;;;;;;;16.00;15.25;;;;;23.59;53.69;100604.66;146622;703;46020;-75
2022/12/15 12:39:36;;;;;;;;;15.00;13.33;;;;;23.64;54.95;100605.50;146617;563;48016;-75
2022/12/15 12:42:53;;;;;;;;;15.67;14.67;;;;;23.68;54.03;100599.34;146622;625;47012;-75
2022/12/15 12:46:12;;;;;;;;;16.25;15.25;;;;;23.62;56.74;100609.94;146618;569;46014;-74
2022/12/15 12:49:44;;;;;;;;;17.67;12.67;;;;;23.51;55.42;100613.50;146623;616;46021;-76
2022/12/15 12:52:40;;;;;;;;;15.00;13.00;;;;;23.41;54.95;100603.84;146621;634;46012;-75
2022/12/15 12:55:46;;;;;;;;;11.67;11.00;;;;;23.42;56.42;100612.66;146623;627;46010;-75
2022/12/15 12:58:47;;;;;;;;;13.00;12.00;;;;;23.38;56.13;100610.91;146619;624;46012;-77
2022/12/15 13:01:45;;;;;;;;;15.67;14.00;;;;;23.33;56.05;100610.91;146624;579;46030;-76
2022/12/15 13:04:46;;;;;;;;;15.67;13.00;;;;;23.30;55.34;100613.56;146620;578;46014;-75
2022/12/15 13:08:26;;;;;;;;;18.00;16.33;;;;;23.34;57.47;100617.97;146623;708;46010;-76
2022/12/15 13:12:14;;;;;;;;;18.00;15.67;;;;;23.32;56.50;100619.75;146622;657;46013;-77
2022/12/15 13:15:50;;;;;;;;;12.67;12.00;;;;;23.14;56.09;100620.66;146625;634;45020;-74
2022/12/15 13:19:10;;;;;;;;;18.00;14.33;;;;;22.97;56.46;100628.62;146619;616;46918;-75
2022/12/15 13:22:21;;;;;;;;;18.75;18.25;;;;;22.85;56.12;100633.00;146622;571;46020;-75
2022/12/15 13:25:52;;;;;;;;;15.75;13.50;;;;;22.55;57.70;100608.31;146624;576;46017;-76
2022/12/15 13:28:52;;;;;;;;;17.33;14.67;;;;;22.54;57.08;100643.56;146638;589;45020;-77
2022/12/15 13:32:02;;;;;;;;;17.33;15.67;;;;;22.33;59.42;100633.84;146634;599;45918;-74
2022/12/15 13:34:59;;;;;;;;;23.00;18.50;;;;;22.33;57.30;100658.50;146636;570;45020;-76
2022/12/15 13:38:06;;;;;;;;;25.25;22.50;;;;;22.31;58.45;100662.03;146634;590;46014;-76
2022/12/15 13:41:28;;;;;;;;;15.33;13.33;;;;;22.20;58.67;100643.50;146636;600;45010;-77
2022/12/15 13:44:52;;;;;;;;;17.25;16.75;;;;;21.98;60.47;100654.84;146635;590;45012;-75
2022/12/15 13:47:57;;;;;;;;;20.00;17.25;;;;;21.98;59.25;100683.91;146637;565;45021;-75
2022/12/15 13:51:14;;;;;;;;;;;;;;;;;;;;;
2022/12/15 13:54:27;;;;;;;;;17.00;16.00;;;;;21.67;60.96;100666.16;146635;614;45020;-76
2022/12/15 13:57:22;;;;;;;;;16.67;16.33;;;;;21.64;59.72;100681.09;146632;655;45033;-74
2022/12/15 14:00:22;;;;;;;;;16.25;12.75;;;;;21.50;60.11;100683.69;146636;637;45025;-76
2022/12/15 14:03:20;;;;;;;;;15.33;14.00;;;;;21.36;59.77;100682.69;146635;612;45012;-75
2022/12/15 14:06:38;;;;;;;;;20.75;19.00;;;;;21.23;61.65;100682.56;146637;580;45020;-76
2022/12/15 14:09:54;;;;;;;;;18.75;15.75;;;;;20.94;60.54;100679.72;146636;650;45017;-76
2022/12/15 14:12:48;;;;;;;;;19.50;16.75;;;;;20.73;61.66;100701.50;146634;597;45010;-77
2022/12/15 14:15:57;;;;;;;;;18.25;15.75;;;;;20.46;62.62;100709.97;146634;683;45015;-76
2022/12/15 14:19:31;;;;;;;;;21.25;16.25;;;;;20.22;63.85;100709.72;146635;628;45010;-75
2022/12/15 14:22:52;;;;;;;;;31.00;27.75;;;;;20.03;64.30;100713.84;146631;685;45915;-77
2022/12/15 14:25:59;;;;;;;;;27.50;22.25;;;;;19.91;64.81;100713.72;146636;742;46010;-77
2022/12/15 14:29:12;;;;;;;;;24.75;22.50;;;;;19.79;65.15;100711.81;146635;595;45016;-75
2022/12/15 14:32:08;;;;;;;;;30.75;25.50;;;;;19.70;65.32;100709.94;146635;610;45021;-77
2022/12/15 14:35:04;;;;;;;;;24.50;22.25;;;;;19.62;65.67;100715.06;146633;634;45016;-76
2022/12/15 14:38:12;;;;;;;;;25.75;22.50;;;;;19.53;66.49;100706.12;146635;573;45010;-75
2022/12/15 14:41:13;;;;;;;;;32.50;25.00;;;;;19.39;66.96;100704.19;146635;576;45016;-75
2022/12/15 14:44:47;;;;;;;;;30.00;27.50;;;;;19.05;66.76;100671.25;146635;566;45020;-75
2022/12/15 14:47:41;;;;;;;;;35.75;28.25;;;;;19.12;67.56;100714.28;146632;648;45017;-75
2022/12/15 14:50:36;;;;;;;;;31.25;27.50;;;;;18.99;67.95;100710.56;146638;574;45020;-76
2022/12/15 14:53:41;;;;;;;;;31.75;29.00;;;;;18.86;67.91;100704.22;146628;729;47918;-75
2022/12/15 14:56:38;;;;;;;;;32.75;28.25;;;;;18.78;68.78;100718.06;146634;607;46010;-75
2022/12/15 14:59:50;;;;;;;;;27.50;23.75;;;;;18.73;68.20;100714.50;146632;563;45014;-75
2022/12/15 15:03:25;;;;;;;;;28.00;25.25;;;;;18.70;68.47;100731.03;146633;631;45031;-77
2022/12/15 15:06:26;;;;;;;;;42.75;34.50;;;;;18.64;68.65;100728.31;146636;618;45016;-76
2022/12/15 15:09:48;;;;;;;;;33.75;27.50;;;;;17.83;68.68;100606.03;146636;614;45021;-78
2022/12/15 15:13:02;;;;;;;;;30.00;24.25;;;;;18.42;68.77;100735.78;146633;563;45037;-72
2022/12/15 15:16:01;;;;;;;;;33.50;28.75;;;;;18.44;69.69;100743.66;146635;574;45020;-78
2022/12/15 15:19:15;;;;;;;;;;;;;;;;;;;;;
2022/12/15 15:22:38;;;;;;;;;33.25;29.75;;;;;18.33;69.32;100758.34;146633;595;46012;-74
2022/12/15 15:25:58;;;;;;;;;40.50;32.50;;;;;18.27;69.72;100759.09;146631;569;45012;-74
2022/12/15 15:29:04;;;;;;;;;36.50;32.00;;;;;18.19;69.93;100761.56;146631;599;45012;-75
2022/12/15 15:32:24;;;;;;;;;35.25;30.00;;;;;18.11;69.93;100770.13;146630;574;45017;-74
2022/12/15 15:35:30;;;;;;;;;29.75;27.00;;;;;18.06;70.48;100767.41;146627;577;45059;-74
2022/12/15 15:38:37;;;;;;;;;35.25;30.25;;;;;17.98;70.64;100764.62;146634;591;45013;-73
2022/12/15 15:41:44;;;;;;;;;33.25;28.00;;;;;16.54;70.21;100529.75;146634;577;46010;-73
2022/12/15 15:44:49;;;;;;;;;;;;;;;;;;;;;
2022/12/15 15:47:49;;;;;;;;;36.50;28.75;;;;;17.63;72.09;100768.13;146634;615;45020;-74
2022/12/15 15:50:52;;;;;;;;;35.00;30.50;;;;;17.50;72.12;100774.84;146632;638;45016;-75
2022/12/15 15:53:46;;;;;;;;;34.50;30.25;;;;;17.40;72.85;100767.59;146635;668;45021;-74
2022/12/15 15:56:41;;;;;;;;;33.25;30.00;;;;;17.31;72.51;100777.00;146635;655;45012;-75
2022/12/15 15:59:41;;;;;;;;;32.00;28.00;;;;;17.21;73.03;100777.62;146635;649;45020;-74
2022/12/15 16:02:43;;;;;;;;;34.00;29.25;;;;;17.14;73.45;100775.72;146636;569;45013;-73
2022/12/15 16:05:49;;;;;;;;;31.50;29.00;;;;;15.79;73.15;100552.28;146633;634;46010;-72
2022/12/15 16:08:58;;;;;;;;;33.50;30.25;;;;;17.04;73.11;100790.31;146634;588;45017;-76
2022/12/15 16:11:58;;;;;;;;;37.75;31.00;;;;;17.01;73.74;100781.50;146635;582;45020;-74
2022/12/15 16:14:56;;;;;;;;;35.25;30.00;;;;;16.93;74.24;100781.28;146630;600;46012;-75
2022/12/15 16:17:58;;;;;;;;;33.50;29.50;;;;;16.87;74.89;100783.72;146635;583;45020;-75
2022/12/15 16:21:19;;;;;;;;;32.00;29.50;;;;;16.78;74.76;100783.50;146634;701;45016;-75
2022/12/15 16:24:21;;;;;;;;;40.25;32.75;;;;;16.73;75.27;100783.34;146625;629;46010;-74
2022/12/15 16:27:18;;;;;;;;;35.50;31.00;;;;;16.68;75.50;100798.03;146614;605;46916;-74
2022/12/15 16:30:34;;;;;;;;;36.00;30.25;;;;;16.59;74.79;100796.03;146618;609;46010;-75
2022/12/15 16:33:36;;;;;;;;;36.25;31.00;;;;;16.52;75.20;100803.69;146611;588;46014;-75
2022/12/15 16:36:29;;;;;;;;;44.50;35.00;;;;;16.49;76.88;100808.84;146615;580;46020;-75
2022/12/15 16:39:51;;;;;;;;;37.00;30.75;;;;;16.47;76.12;100811.41;146611;583;46017;-74
2022/12/15 16:42:50;;;;;;;;;40.00;31.00;;;;;16.49;77.00;100804.47;146619;610;46012;-74
2022/12/15 16:45:55;;;;;;;;;38.00;31.00;;;;;16.44;76.13;100816.53;146614;661;46013;-74
2022/12/15 16:48:50;;;;;;;;;42.00;33.00;;;;;16.36;76.47;100821.56;146618;582;46010;-74
2022/12/15 16:51:49;;;;;;;;;46.25;33.75;;;;;16.28;76.43;100825.69;146615;616;46012;-75
2022/12/15 16:54:47;;;;;;;;;48.50;39.00;;;;;16.29;76.40;100837.94;146615;565;46020;-74
2022/12/15 16:57:43;;;;;;;;;49.00;37.75;;;;;16.29;77.15;100837.03;146614;676;46012;-74
2022/12/15 17:00:39;;;;;;;;;42.50;32.50;;;;;16.29;76.29;100842.25;146621;654;46020;-75
2022/12/15 17:03:38;;;;;;;;;39.50;31.75;;;;;16.21;76.41;100843.78;146612;610;47012;-74
2022/12/15 17:06:33;;;;;;;;;33.00;26.00;;;;;16.18;76.66;100855.03;146617;608;45020;-75
2022/12/15 17:09:35;;;;;;;;;41.50;32.00;;;;;16.17;76.74;100863.72;146618;578;46013;-74
2022/12/15 17:12:34;;;;;;;;;61.25;46.50;;;;;16.14;77.00;100868.88;146621;683;45020;-75
2022/12/15 17:15:38;;;;;;;;;43.25;31.50;;;;;16.11;77.33;100866.16;146616;648;46017;-74